Nevskiy-31 — UCGM — position and weather

sailwx.info

Track history (hours):
 
Tides and Currents Weather Stations Pressure Air Temp Water Temp Dewpoint Dewpoint Depression Visibility Wind Speed Wind Dir Waves Ship Positions

Nevskiy-31

Last reported at 2015-Aug-02 09:33 UTC. Time now 2015-Aug-02 10:19 UTC.
Position N 59°54' E 030°26'.

Length 111 m; draft 3.2 m.

Type: Cargo ship. MMSI: 273440320.

Date/timePositionNaut miles runAvg speedWind from/ knotsBaromVisibWave heightAir tempDewpointWater temp
2015-Aug-02 09:33N 59°54' E 030°26'0 0.0
2015-Aug-02 08:33N 59°54' E 030°26'0 0.0
2015-Aug-02 07:30N 59°54' E 030°26'0 0.0
2015-Aug-02 06:32N 59°54' E 030°26'0 0.0
2015-Aug-02 05:30N 59°54' E 030°26'0 0.0
2015-Aug-02 04:33N 59°54' E 030°26'0 0.0
2015-Aug-02 03:33N 59°54' E 030°26'2 2.3
2015-Aug-02 02:33N 59°56' E 030°24'4 3.6
2015-Aug-02 01:33N 59°57' E 030°17'5 5.4
2015-Aug-02 00:33N 59°57' E 030°06'6 5.7
2015-Aug-01 23:33N 59°56' E 029°55'6 6.0
2015-Aug-01 22:33N 59°59' E 029°44'0 0.4
2015-Aug-01 21:32N 59°59' E 029°43'0 0.0
2015-Jul-31 22:18N 59°59' E 029°43'5 6.9
2015-Jul-31 21:33N 59°57' E 029°53'7 6.7
2015-Jul-31 20:34N 59°57' E 030°06'6 6.2
2015-Jul-31 19:33N 59°57' E 030°18'5 4.1
2015-Jul-31 18:23N 59°54' E 030°26'0 0.0
2015-Jul-31 17:32N 59°54' E 030°26'0 0.0
2015-Jul-31 16:29N 59°54' E 030°26'0 0.0
2015-Jul-31 15:12N 59°54' E 030°26'3 4.5
2015-Jul-31 14:33N 59°57' E 030°24'4 4.1
2015-Jul-31 13:33N 59°57' E 030°16'5 5.3
2015-Jul-31 12:33N 59°56' E 030°06'6 6.0
2015-Jul-31 11:33N 59°57' E 029°54'6 4.3
2015-Jul-31 10:15N 59°59' E 029°43'2 2.2
2015-Jul-31 09:28N 59°60' E 029°40'2 0.2
2015-Jul-30 18:32N 59°59' E 029°45'8 7.6
2015-Jul-30 17:32N 59°56' E 029°58'7 7.1
2015-Jul-30 16:33N 59°58' E 030°12'6 6.3
2015-Jul-30 15:33N 59°56' E 030°24'3 0.7
2015-Jul-30 11:31N 59°54' E 030°27'0 0.3
2015-Jul-30 10:33N 59°54' E 030°26'0 0.0
2015-Jul-30 09:33N 59°54' E 030°26'0 0.0
2015-Jul-29 21:33N 59°54' E 030°26'0 0.0
2015-Jul-29 20:33N 59°54' E 030°26'0 0.0
2015-Jul-29 19:33N 59°54' E 030°26'0 0.0
2015-Jul-29 18:18N 59°54' E 030°26'0 0.0
2015-Jul-29 17:19N 59°54' E 030°26'0 0.0
2015-Jul-29 12:23N 59°54' E 030°26'0 0.0
2015-Jul-29 11:30N 59°54' E 030°26'0 0.0
2015-Jul-29 10:33N 59°54' E 030°26'0 0.1
2015-Jul-29 06:16N 59°54' E 030°26'3 4.6
2015-Jul-29 05:33N 59°57' E 030°24'5 4.6
2015-Jul-29 04:32N 59°58' E 030°14'6 5.9
2015-Jul-29 03:33N 59°56' E 030°03'6 6.1
2015-Jul-29 02:33N 59°57' E 029°51'7 6.5
2015-Jul-29 01:32N 59°60' E 029°39'0 0.0
2015-Jul-28 12:05N 59°60' E 029°39'4 7.5
2015-Jul-28 11:33N 59°59' E 029°46'7 7.2
2015-Jul-28 10:33N 59°55' E 029°59'7 7.1
2015-Jul-28 09:33N 59°58' E 030°12'6 6.1
2015-Jul-28 08:33N 59°56' E 030°24'3 2.6
2015-Jul-28 07:33N 59°54' E 030°26'0 0.0
2015-Jul-28 06:33N 59°54' E 030°26'0 0.0
2015-Jul-28 05:32N 59°54' E 030°26'0 0.5
2015-Jul-28 04:33N 59°54' E 030°26'4 3.6
2015-Jul-28 03:33N 59°57' E 030°21'5 4.8
2015-Jul-28 02:33N 59°58' E 030°12'6 6.3
2015-Jul-28 01:33N 59°55' E 030°01'6 6.4
2015-Jul-28 00:33N 59°58' E 029°48'5 0.3
2015-Jul-27 09:33N 59°60' E 029°40'7 6.9
2015-Jul-27 08:33N 59°57' E 029°53'7 6.7
2015-Jul-27 07:33N 59°57' E 030°06'6 6.4
2015-Jul-27 06:33N 59°57' E 030°19'5 4.6
2015-Jul-27 05:33N 59°54' E 030°26'0 0.0
2015-Jul-27 04:32N 59°54' E 030°26'0 0.0
2015-Jul-27 03:25N 59°54' E 030°26'0 0.1
2015-Jul-27 02:32N 59°54' E 030°26'4 3.8
2015-Jul-27 01:33N 59°57' E 030°22'5 5.0
2015-Jul-27 00:33N 59°58' E 030°12'6 5.6
2015-Jul-26 23:33N 59°56' E 030°02'6 5.6
2015-Jul-26 22:33N 59°57' E 029°51'4 4.4
2015-Jul-26 21:33N 59°59' E 029°43'2 0.1
2015-Jul-26 06:32N 59°60' E 029°40'8 7.8
2015-Jul-26 05:33N 59°57' E 029°54'8 7.5
2015-Jul-26 04:33N 59°54' E 030°08'3 3.2
2015-Jul-26 03:33N 59°52' E 030°13'0 0.0
2015-Jul-26 02:33N 59°52' E 030°13'0 0.0
2015-Jul-26 01:33N 59°52' E 030°13'0 0.1
2015-Jul-26 00:33N 59°52' E 030°13'0 0.0
2015-Jul-25 23:33N 59°52' E 030°13'1 1.0
2015-Jul-25 22:33N 59°53' E 030°12'5 5.0
2015-Jul-25 21:33N 59°55' E 030°03'2 2.3
2015-Jul-25 20:33N 59°56' E 029°59'4 4.3
2015-Jul-25 19:33N 59°57' E 029°51'6 5.8
2015-Jul-25 18:29N 59°60' E 029°39'7 0.2
2015-Jul-24 10:33N 59°57' E 029°53'6 6.3
2015-Jul-24 09:33N 59°56' E 030°05'5 5.2
2015-Jul-24 08:33N 59°57' E 030°15'0 0.0
2015-Jul-24 07:33N 59°57' E 030°15'0 0.0
2015-Jul-24 06:33N 59°57' E 030°15'4 4.3
2015-Jul-24 05:33N 59°57' E 030°24'4 3.6
2015-Jul-24 04:33N 59°54' E 030°26'0 0.0
2015-Jul-24 03:11N 59°54' E 030°26'0 0.0
2015-Jul-24 01:09N 59°54' E 030°26'0 0.0
2015-Jul-23 23:04N 59°54' E 030°26'0 0.0
2015-Jul-23 22:10N 59°54' E 030°26'0 0.0
2015-Jul-23 21:33N 59°54' E 030°26'2 0.9
2015-Jul-23 19:31N 59°55' E 030°24'3 3.4
2015-Jul-23 18:33N 59°57' E 030°18'5 5.5
2015-Jul-23 17:33N 59°57' E 030°07'5 5.0
2015-Jul-23 16:33N 59°55' E 029°58'0 0.0
2015-Jul-23 15:33N 59°55' E 029°58'4 3.6
2015-Jul-23 14:33N 59°57' E 029°51'7 6.7
2015-Jul-23 13:33N 59°60' E 029°39'  
Track history (hours):
 
Tides and Currents Weather Stations Pressure Air Temp Water Temp Dewpoint Dewpoint Depression Visibility Wind Speed Wind Dir Waves Ship Positions

Nevskiy-31

Last reported at 2015-Aug-02 09:33 UTC. Time now 2015-Aug-02 10:19 UTC.
Position N 59°54' E 030°26'.

Length 111 m; draft 3.2 m.

Type: Cargo ship. MMSI: 273440320.

Date/timePositionNaut miles runAvg speedWind from/ knotsBaromVisibWave heightAir tempDewpointWater temp
2015-Aug-02 09:33N 59°54' E 030°26'0 0.0
2015-Aug-02 08:33N 59°54' E 030°26'0 0.0
2015-Aug-02 07:30N 59°54' E 030°26'0 0.0
2015-Aug-02 06:32N 59°54' E 030°26'0 0.0
2015-Aug-02 05:30N 59°54' E 030°26'0 0.0
2015-Aug-02 04:33N 59°54' E 030°26'0 0.0
2015-Aug-02 03:33N 59°54' E 030°26'2 2.3
2015-Aug-02 02:33N 59°56' E 030°24'4 3.6
2015-Aug-02 01:33N 59°57' E 030°17'5 5.4
2015-Aug-02 00:33N 59°57' E 030°06'6 5.7
2015-Aug-01 23:33N 59°56' E 029°55'6 6.0
2015-Aug-01 22:33N 59°59' E 029°44'0 0.4
2015-Aug-01 21:32N 59°59' E 029°43'0 0.0
2015-Jul-31 22:18N 59°59' E 029°43'5 6.9
2015-Jul-31 21:33N 59°57' E 029°53'7 6.7
2015-Jul-31 20:34N 59°57' E 030°06'6 6.2
2015-Jul-31 19:33N 59°57' E 030°18'5 4.1
2015-Jul-31 18:23N 59°54' E 030°26'0 0.0
2015-Jul-31 17:32N 59°54' E 030°26'0 0.0
2015-Jul-31 16:29N 59°54' E 030°26'0 0.0
2015-Jul-31 15:12N 59°54' E 030°26'3 4.5
2015-Jul-31 14:33N 59°57' E 030°24'4 4.1
2015-Jul-31 13:33N 59°57' E 030°16'5 5.3
2015-Jul-31 12:33N 59°56' E 030°06'6 6.0
2015-Jul-31 11:33N 59°57' E 029°54'6 4.3
2015-Jul-31 10:15N 59°59' E 029°43'2 2.2
2015-Jul-31 09:28N 59°60' E 029°40'2 0.2
2015-Jul-30 18:32N 59°59' E 029°45'8 7.6
2015-Jul-30 17:32N 59°56' E 029°58'7 7.1
2015-Jul-30 16:33N 59°58' E 030°12'6 6.3
2015-Jul-30 15:33N 59°56' E 030°24'3 0.7
2015-Jul-30 11:31N 59°54' E 030°27'0 0.3
2015-Jul-30 10:33N 59°54' E 030°26'0 0.0
2015-Jul-30 09:33N 59°54' E 030°26'0 0.0
2015-Jul-29 21:33N 59°54' E 030°26'0 0.0
2015-Jul-29 20:33N 59°54' E 030°26'0 0.0
2015-Jul-29 19:33N 59°54' E 030°26'0 0.0
2015-Jul-29 18:18N 59°54' E 030°26'0 0.0
2015-Jul-29 17:19N 59°54' E 030°26'0 0.0
2015-Jul-29 12:23N 59°54' E 030°26'0 0.0
2015-Jul-29 11:30N 59°54' E 030°26'0 0.0
2015-Jul-29 10:33N 59°54' E 030°26'0 0.1
2015-Jul-29 06:16N 59°54' E 030°26'3 4.6
2015-Jul-29 05:33N 59°57' E 030°24'5 4.6
2015-Jul-29 04:32N 59°58' E 030°14'6 5.9
2015-Jul-29 03:33N 59°56' E 030°03'6 6.1
2015-Jul-29 02:33N 59°57' E 029°51'7 6.5
2015-Jul-29 01:32N 59°60' E 029°39'0 0.0
2015-Jul-28 12:05N 59°60' E 029°39'4 7.5
2015-Jul-28 11:33N 59°59' E 029°46'7 7.2
2015-Jul-28 10:33N 59°55' E 029°59'7 7.1
2015-Jul-28 09:33N 59°58' E 030°12'6 6.1
2015-Jul-28 08:33N 59°56' E 030°24'3 2.6
2015-Jul-28 07:33N 59°54' E 030°26'0 0.0
2015-Jul-28 06:33N 59°54' E 030°26'0 0.0
2015-Jul-28 05:32N 59°54' E 030°26'0 0.5
2015-Jul-28 04:33N 59°54' E 030°26'4 3.6
2015-Jul-28 03:33N 59°57' E 030°21'5 4.8
2015-Jul-28 02:33N 59°58' E 030°12'6 6.3
2015-Jul-28 01:33N 59°55' E 030°01'6 6.4
2015-Jul-28 00:33N 59°58' E 029°48'5 0.3
2015-Jul-27 09:33N 59°60' E 029°40'7 6.9
2015-Jul-27 08:33N 59°57' E 029°53'7 6.7
2015-Jul-27 07:33N 59°57' E 030°06'6 6.4
2015-Jul-27 06:33N 59°57' E 030°19'5 4.6
2015-Jul-27 05:33N 59°54' E 030°26'0 0.0
2015-Jul-27 04:32N 59°54' E 030°26'0 0.0
2015-Jul-27 03:25N 59°54' E 030°26'0 0.1
2015-Jul-27 02:32N 59°54' E 030°26'4 3.8
2015-Jul-27 01:33N 59°57' E 030°22'5 5.0
2015-Jul-27 00:33N 59°58' E 030°12'6 5.6
2015-Jul-26 23:33N 59°56' E 030°02'6 5.6
2015-Jul-26 22:33N 59°57' E 029°51'4 4.4
2015-Jul-26 21:33N 59°59' E 029°43'2 0.1
2015-Jul-26 06:32N 59°60' E 029°40'8 7.8
2015-Jul-26 05:33N 59°57' E 029°54'8 7.5
2015-Jul-26 04:33N 59°54' E 030°08'3 3.2
2015-Jul-26 03:33N 59°52' E 030°13'0 0.0
2015-Jul-26 02:33N 59°52' E 030°13'0 0.0
2015-Jul-26 01:33N 59°52' E 030°13'0 0.1
2015-Jul-26 00:33N 59°52' E 030°13'0 0.0
2015-Jul-25 23:33N 59°52' E 030°13'1 1.0
2015-Jul-25 22:33N 59°53' E 030°12'5 5.0
2015-Jul-25 21:33N 59°55' E 030°03'2 2.3
2015-Jul-25 20:33N 59°56' E 029°59'4 4.3
2015-Jul-25 19:33N 59°57' E 029°51'6 5.8
2015-Jul-25 18:29N 59°60' E 029°39'7 0.2
2015-Jul-24 10:33N 59°57' E 029°53'6 6.3
2015-Jul-24 09:33N 59°56' E 030°05'5 5.2
2015-Jul-24 08:33N 59°57' E 030°15'0 0.0
2015-Jul-24 07:33N 59°57' E 030°15'0 0.0
2015-Jul-24 06:33N 59°57' E 030°15'4 4.3
2015-Jul-24 05:33N 59°57' E 030°24'4 3.6
2015-Jul-24 04:33N 59°54' E 030°26'0 0.0
2015-Jul-24 03:11N 59°54' E 030°26'0 0.0
2015-Jul-24 01:09N 59°54' E 030°26'0 0.0
2015-Jul-23 23:04N 59°54' E 030°26'0 0.0
2015-Jul-23 22:10N 59°54' E 030°26'0 0.0
2015-Jul-23 21:33N 59°54' E 030°26'2 0.9
2015-Jul-23 19:31N 59°55' E 030°24'3 3.4
2015-Jul-23 18:33N 59°57' E 030°18'5 5.5
2015-Jul-23 17:33N 59°57' E 030°07'5 5.0
2015-Jul-23 16:33N 59°55' E 029°58'0 0.0
2015-Jul-23 15:33N 59°55' E 029°58'4 3.6
2015-Jul-23 14:33N 59°57' E 029°51'7 6.7
2015-Jul-23 13:33N 59°60' E 029°39'  

Dump ship's entire track history